createdAt,value
2023-01-20T00:01:43.053Z,2.18
2023-01-20T00:04:11.110Z,2.18
2023-01-20T00:06:38.725Z,2.19
2023-01-20T00:09:06.158Z,2.21
2023-01-20T00:11:34.796Z,2.20
2023-01-20T00:14:02.927Z,2.19
2023-01-20T00:16:31.972Z,2.21
2023-01-20T00:18:59.615Z,2.23
2023-01-20T00:21:27.093Z,2.25
2023-01-20T00:23:54.516Z,2.26
2023-01-20T00:26:24.901Z,2.25
2023-01-20T00:28:55.392Z,2.23
2023-01-20T00:31:32.707Z,2.25
2023-01-20T00:34:01.299Z,2.23
2023-01-20T00:36:32.022Z,2.25
2023-01-20T00:39:00.512Z,2.24
2023-01-20T00:41:27.680Z,2.24
2023-01-20T00:43:54.968Z,2.24
2023-01-20T00:46:23.283Z,2.25
2023-01-20T00:48:50.519Z,2.24
2023-01-20T00:51:18.019Z,2.24
2023-01-20T00:53:45.085Z,2.22
2023-01-20T00:56:12.269Z,2.23
2023-01-20T00:58:39.364Z,2.22
2023-01-20T01:01:07.986Z,2.24
2023-01-20T01:03:34.994Z,2.25
2023-01-20T01:06:15.179Z,2.26
2023-01-20T01:08:43.562Z,2.27
2023-01-20T01:11:12.707Z,2.26
2023-01-20T01:13:40.373Z,2.26
2023-01-20T01:16:16.277Z,2.29
2023-01-20T01:18:43.492Z,2.32
2023-01-20T01:21:15.030Z,2.31
2023-01-20T01:23:43.402Z,2.31
2023-01-20T01:26:11.340Z,2.30
2023-01-20T01:28:38.667Z,2.29
2023-01-20T01:31:08.363Z,2.30
2023-01-20T01:33:36.367Z,2.31
2023-01-20T01:36:05.240Z,2.33
2023-01-20T01:38:32.478Z,2.32
2023-01-20T01:41:00.104Z,2.32
2023-01-20T01:43:32.723Z,2.32
2023-01-20T01:46:00.437Z,2.30
2023-01-20T01:48:39.994Z,2.29
2023-01-20T01:52:08.850Z,2.29
2023-01-20T01:54:45.395Z,2.30
2023-01-20T01:57:12.932Z,2.30
2023-01-20T01:59:40.074Z,2.30
2023-01-20T02:02:07.686Z,2.30
2023-01-20T02:04:35.091Z,2.30
2023-01-20T02:07:11.022Z,2.29
2023-01-20T02:09:38.666Z,2.29
2023-01-20T02:12:19.102Z,2.31
2023-01-20T02:14:56.657Z,2.30
2023-01-20T02:17:34.229Z,2.31
2023-01-20T02:20:50.701Z,2.31
2023-01-20T02:24:07.335Z,2.30
2023-01-20T02:26:46.242Z,2.29
2023-01-20T02:29:27.221Z,2.30
2023-01-20T02:32:31.975Z,2.29
2023-01-20T02:35:40.539Z,2.31
2023-01-20T02:38:37.976Z,2.32
2023-01-20T02:41:27.500Z,2.32
2023-01-20T02:44:31.534Z,2.33
2023-01-20T02:47:17.179Z,2.30
2023-01-20T02:50:02.471Z,2.30
2023-01-20T02:52:39.786Z,2.29
2023-01-20T02:55:14.967Z,2.31
2023-01-20T02:57:54.432Z,2.30
2023-01-20T03:00:31.159Z,2.34
2023-01-20T03:03:01.901Z,2.36
2023-01-20T03:05:35.926Z,2.38
2023-01-20T03:08:09.610Z,2.34
2023-01-20T03:10:40.003Z,2.35
2023-01-20T03:13:32.600Z,2.36
2023-01-20T03:16:10.049Z,2.37
2023-01-20T03:18:39.544Z,2.37
2023-01-20T03:21:10.186Z,2.36
2023-01-20T03:23:46.285Z,2.36
2023-01-20T03:26:16.959Z,2.32
2023-01-20T03:28:46.540Z,2.33
2023-01-20T03:31:22.204Z,2.34
2023-01-20T03:33:54.847Z,2.36
2023-01-20T03:36:25.171Z,2.37
2023-01-20T03:38:55.719Z,2.37
2023-01-20T03:41:49.078Z,2.35
2023-01-20T03:44:44.724Z,2.35
2023-01-20T03:47:50.809Z,2.36
2023-01-20T03:50:38.029Z,2.36
2023-01-20T03:53:32.290Z,2.35
2023-01-20T03:56:06.370Z,2.33
2023-01-20T03:58:39.334Z,2.32
2023-01-20T04:01:17.834Z,2.33
2023-01-20T04:03:50.531Z,2.32
2023-01-20T04:06:24.070Z,2.30
2023-01-20T04:08:59.684Z,2.29
2023-01-20T04:11:27.888Z,2.30
2023-01-20T04:13:55.315Z,2.29
2023-01-20T04:16:25.013Z,2.32
2023-01-20T04:18:53.458Z,2.33
2023-01-20T04:21:36.837Z,2.31
2023-01-20T04:24:38.031Z,2.33
2023-01-20T04:27:05.338Z,2.34
2023-01-20T04:29:32.317Z,2.36
2023-01-20T04:32:02.571Z,2.34
2023-01-20T04:34:30.118Z,2.35
2023-01-20T04:36:57.479Z,2.35
2023-01-20T04:39:24.603Z,2.33
2023-01-20T04:41:51.979Z,2.31
2023-01-20T04:44:19.021Z,2.31
2023-01-20T04:46:47.387Z,2.33
2023-01-20T04:49:15.004Z,2.33
2023-01-20T04:51:42.238Z,2.32
2023-01-20T04:54:09.301Z,2.32
2023-01-20T04:56:36.506Z,2.33
2023-01-20T04:59:03.542Z,2.36
2023-01-20T05:01:30.934Z,2.34
2023-01-20T05:03:57.949Z,2.35
2023-01-20T05:06:25.201Z,2.33
2023-01-20T05:08:52.633Z,2.31
2023-01-20T05:11:19.866Z,2.31
2023-01-20T05:13:46.790Z,2.30
2023-01-20T05:16:14.185Z,2.29
2023-01-20T05:18:41.260Z,2.29
2023-01-20T05:21:08.832Z,2.30
2023-01-20T05:23:36.303Z,2.29
2023-01-20T05:26:03.545Z,2.30
2023-01-20T05:28:30.495Z,2.32
2023-01-20T05:30:57.911Z,2.33
2023-01-20T05:33:24.987Z,2.32
2023-01-20T05:35:53.822Z,2.31
2023-01-20T05:38:22.823Z,2.29
2023-01-20T05:40:50.088Z,2.28
2023-01-20T05:43:17.178Z,2.26
2023-01-20T05:45:46.649Z,2.29
2023-01-20T05:48:13.575Z,2.28
2023-01-20T05:50:40.846Z,2.27
2023-01-20T05:53:07.788Z,2.32
2023-01-20T05:55:35.016Z,2.29
2023-01-20T05:58:03.454Z,2.27
2023-01-20T06:00:31.193Z,2.25
2023-01-20T06:02:58.834Z,2.24
2023-01-20T06:05:26.849Z,2.21
2023-01-20T06:07:58.183Z,2.20
2023-01-20T06:10:28.086Z,2.14
2023-01-20T06:12:56.202Z,2.13
2023-01-20T06:15:24.529Z,2.13
2023-01-20T06:17:54.734Z,2.12
2023-01-20T06:20:22.101Z,2.13
2023-01-20T06:22:49.208Z,2.13
2023-01-20T06:25:16.854Z,2.14
2023-01-20T06:27:44.061Z,2.12
2023-01-20T06:30:11.741Z,2.17
2023-01-20T06:32:38.617Z,2.22
2023-01-20T06:35:06.470Z,2.27
2023-01-20T06:37:33.496Z,2.24
2023-01-20T06:40:00.645Z,2.20
2023-01-20T06:42:27.632Z,2.20
2023-01-20T06:44:55.086Z,2.17
2023-01-20T06:47:22.242Z,2.15
2023-01-20T06:49:49.428Z,2.15
2023-01-20T06:52:16.382Z,2.18
2023-01-20T06:54:43.536Z,2.18
2023-01-20T06:57:10.439Z,2.20
2023-01-20T06:59:37.775Z,2.20
2023-01-20T07:02:04.953Z,2.16
2023-01-20T07:04:32.258Z,2.14
2023-01-20T07:06:59.187Z,2.13
2023-01-20T07:09:26.382Z,2.13
2023-01-20T07:11:53.350Z,2.13
2023-01-20T07:14:21.098Z,2.14
2023-01-20T07:16:48.219Z,2.15
2023-01-20T07:19:15.513Z,2.20
2023-01-20T07:21:42.582Z,2.22
2023-01-20T07:24:10.265Z,2.21
2023-01-20T07:26:37.328Z,2.21
2023-01-20T07:29:04.683Z,2.22
2023-01-20T07:31:31.809Z,2.24
2023-01-20T07:34:00.007Z,2.25
2023-01-20T07:36:27.670Z,2.27
2023-01-20T07:38:55.104Z,2.26
2023-01-20T07:41:22.864Z,2.28
2023-01-20T07:43:52.672Z,2.29
2023-01-20T07:46:20.736Z,2.31
2023-01-20T07:48:48.304Z,2.30
2023-01-20T07:51:16.556Z,2.27
2023-01-20T07:53:47.719Z,2.27
2023-01-20T07:56:21.544Z,2.27
2023-01-20T07:58:50.556Z,2.27
2023-01-20T08:01:29.356Z,2.28
2023-01-20T08:04:00.391Z,2.29
2023-01-20T08:06:29.108Z,2.28
2023-01-20T08:09:00.135Z,2.28
2023-01-20T08:11:27.328Z,2.28
2023-01-20T08:13:55.381Z,2.29
2023-01-20T08:16:22.509Z,2.29
2023-01-20T08:18:49.722Z,2.30
2023-01-20T08:21:21.790Z,2.32
2023-01-20T08:23:50.283Z,2.31
2023-01-20T08:26:19.531Z,2.31
2023-01-20T08:28:47.840Z,2.33
2023-01-20T08:31:18.966Z,2.33
2023-01-20T08:33:47.601Z,2.33
2023-01-20T08:36:29.735Z,2.34
2023-01-20T08:39:02.045Z,2.35
2023-01-20T08:41:35.518Z,2.35
2023-01-20T08:44:05.977Z,2.33
2023-01-20T08:46:34.179Z,2.34
2023-01-20T08:49:12.003Z,2.35
2023-01-20T08:51:40.025Z,2.35
2023-01-20T08:54:07.491Z,2.35
2023-01-20T08:56:36.906Z,2.34
2023-01-20T08:59:04.496Z,2.32
2023-01-20T09:01:36.218Z,2.33
2023-01-20T09:04:06.823Z,2.33
2023-01-20T09:06:47.138Z,2.35
2023-01-20T09:09:17.815Z,2.35
2023-01-20T09:11:50.626Z,2.34
2023-01-20T09:14:20.444Z,2.31
2023-01-20T09:16:48.414Z,2.32
2023-01-20T09:19:16.125Z,2.32
2023-01-20T09:21:44.207Z,2.34
2023-01-20T09:24:11.663Z,2.35
2023-01-20T09:26:39.437Z,2.36
2023-01-20T09:29:19.571Z,2.36
2023-01-20T09:31:53.987Z,2.35
2023-01-20T09:34:21.368Z,2.33
2023-01-20T09:36:57.979Z,2.31
2023-01-20T09:39:43.986Z,2.28
2023-01-20T09:43:02.705Z,2.28
2023-01-20T09:45:42.301Z,2.29
2023-01-20T09:48:49.467Z,2.30
2023-01-20T09:52:10.809Z,2.33
2023-01-20T09:54:47.571Z,2.33
2023-01-20T09:57:15.727Z,2.34
2023-01-20T09:59:55.410Z,2.33
2023-01-20T10:02:32.165Z,2.30
2023-01-20T10:05:13.066Z,2.30
2023-01-20T10:07:56.801Z,2.29
2023-01-20T10:10:42.406Z,2.29
2023-01-20T10:13:21.792Z,2.29
2023-01-20T10:15:57.200Z,2.29
2023-01-20T10:18:35.234Z,2.27
2023-01-20T10:21:19.806Z,2.25
2023-01-20T10:23:55.860Z,2.24
2023-01-20T10:26:48.975Z,2.25
2023-01-20T10:29:29.286Z,2.25
2023-01-20T10:32:12.534Z,2.29
2023-01-20T10:34:48.018Z,2.30
2023-01-20T10:37:15.474Z,2.29
2023-01-20T10:40:03.319Z,2.32
2023-01-20T10:42:30.513Z,2.31
2023-01-20T10:44:59.464Z,2.31
2023-01-20T10:47:49.673Z,2.32
2023-01-20T10:50:57.665Z,2.34
2023-01-20T10:54:00.154Z,2.34
2023-01-20T10:56:53.412Z,2.36
2023-01-20T10:59:46.567Z,2.37
2023-01-20T11:02:25.843Z,2.35
2023-01-20T11:05:00.778Z,2.32
2023-01-20T11:07:32.876Z,2.31
2023-01-20T11:10:14.971Z,2.31
2023-01-20T11:12:45.304Z,2.32
2023-01-20T11:15:23.662Z,2.32
2023-01-20T11:18:15.775Z,2.30
2023-01-20T11:20:46.490Z,2.31
2023-01-20T11:23:32.921Z,2.29
2023-01-20T11:26:10.417Z,2.29
2023-01-20T11:28:53.954Z,2.26
2023-01-20T11:31:35.018Z,2.28
2023-01-20T11:34:26.506Z,2.30
2023-01-20T11:37:05.594Z,2.32
2023-01-20T11:39:57.471Z,2.31
2023-01-20T11:42:30.671Z,2.35
2023-01-20T11:45:19.904Z,2.35
2023-01-20T11:48:05.085Z,2.34
2023-01-20T11:50:38.007Z,2.36
2023-01-20T11:53:25.630Z,2.34
2023-01-20T11:56:15.168Z,2.35
2023-01-20T11:59:01.825Z,2.40
2023-01-20T12:02:01.453Z,2.40
2023-01-20T12:04:57.561Z,2.42
2023-01-20T12:07:47.015Z,2.43
2023-01-20T12:10:23.990Z,2.43
2023-01-20T12:13:20.581Z,2.43
2023-01-20T12:15:54.974Z,2.44
2023-01-20T12:19:01.284Z,2.51
2023-01-20T12:21:42.807Z,2.54
2023-01-20T12:24:52.078Z,2.63
2023-01-20T12:27:27.157Z,2.72
2023-01-20T12:30:03.246Z,2.76
2023-01-20T12:32:33.321Z,2.70
2023-01-20T12:35:00.669Z,2.62
2023-01-20T12:37:43.151Z,2.60
2023-01-20T12:40:35.687Z,2.62
2023-01-20T12:43:50.130Z,2.62
2023-01-20T12:46:34.352Z,2.60
2023-01-20T12:49:43.391Z,2.59
2023-01-20T12:53:12.709Z,2.56
2023-01-20T12:56:16.679Z,2.60
2023-01-20T12:59:42.627Z,2.71
2023-01-20T13:02:50.954Z,2.70
2023-01-20T13:05:55.304Z,2.65
2023-01-20T13:08:50.385Z,2.61
2023-01-20T13:12:10.165Z,2.50
2023-01-20T13:14:50.469Z,2.49
2023-01-20T13:17:48.901Z,2.35
2023-01-20T13:20:28.550Z,2.36
2023-01-20T13:23:02.783Z,2.21
2023-01-20T13:25:30.996Z,2.28
2023-01-20T13:27:59.145Z,2.33
2023-01-20T13:30:54.636Z,2.26
2023-01-20T13:33:42.197Z,2.23
2023-01-20T13:36:21.290Z,2.22
2023-01-20T13:39:11.051Z,2.18
2023-01-20T13:41:51.389Z,2.08
2023-01-20T13:44:32.064Z,2.06
2023-01-20T13:46:59.278Z,1.80
2023-01-20T13:49:44.550Z,2.01
2023-01-20T13:52:11.997Z,2.11
2023-01-20T13:54:45.679Z,2.17
2023-01-20T13:57:23.329Z,2.22
2023-01-20T13:59:51.205Z,2.21
2023-01-20T14:02:19.769Z,2.20
2023-01-20T14:04:47.718Z,2.22
2023-01-20T14:07:30.653Z,2.19
2023-01-20T14:10:01.583Z,2.19
2023-01-20T14:12:28.820Z,2.18
2023-01-20T14:14:56.056Z,2.17
2023-01-20T14:17:25.002Z,2.16
2023-01-20T14:19:55.778Z,2.22
2023-01-20T14:22:32.027Z,2.29
2023-01-20T14:25:01.660Z,2.35
2023-01-20T14:27:35.296Z,2.33
2023-01-20T14:30:23.770Z,2.31
2023-01-20T14:32:53.665Z,2.34
2023-01-20T14:35:33.098Z,2.37
2023-01-20T14:38:01.322Z,2.37
2023-01-20T14:40:35.307Z,2.37
2023-01-20T14:43:20.436Z,2.38
2023-01-20T14:45:51.954Z,2.33
2023-01-20T14:48:33.985Z,2.24
2023-01-20T14:51:04.234Z,2.25
2023-01-20T14:53:40.546Z,2.25
2023-01-20T14:56:18.086Z,2.26
2023-01-20T14:58:48.308Z,2.26
2023-01-20T15:01:23.070Z,2.28
2023-01-20T15:04:03.460Z,2.28
2023-01-20T15:06:30.768Z,2.32
2023-01-20T15:09:06.625Z,2.30
2023-01-20T15:11:35.577Z,2.28
2023-01-20T15:14:02.682Z,2.27
2023-01-20T15:16:36.229Z,2.30
2023-01-20T15:19:18.597Z,2.31
2023-01-20T15:21:51.613Z,2.29
2023-01-20T15:24:23.758Z,2.26
2023-01-20T15:26:54.529Z,2.29
2023-01-20T15:29:33.053Z,2.31
2023-01-20T15:32:09.212Z,2.28
2023-01-20T15:34:36.477Z,2.24
2023-01-20T15:37:15.719Z,2.23
2023-01-20T15:39:42.782Z,2.26
2023-01-20T15:42:12.051Z,2.24
2023-01-20T15:44:39.455Z,2.25
2023-01-20T15:47:31.376Z,2.28
2023-01-20T15:49:58.944Z,2.24
2023-01-20T15:52:26.658Z,2.23
2023-01-20T15:54:53.587Z,2.24
2023-01-20T15:57:20.926Z,2.23
2023-01-20T15:59:49.667Z,2.25
2023-01-20T16:02:23.332Z,2.23
2023-01-20T16:04:50.754Z,2.21
2023-01-20T16:07:20.519Z,2.18
2023-01-20T16:09:48.654Z,2.18
2023-01-20T16:12:18.106Z,2.16
2023-01-20T16:14:45.828Z,2.15
2023-01-20T16:17:20.942Z,2.15
2023-01-20T16:19:50.047Z,2.03
2023-01-20T16:22:17.685Z,1.94
2023-01-20T16:24:44.930Z,1.87
2023-01-20T16:27:22.560Z,1.97
2023-01-20T16:29:50.466Z,1.74
2023-01-20T16:32:21.799Z,1.73
2023-01-20T16:34:49.599Z,1.67
2023-01-20T16:37:17.161Z,1.88
2023-01-20T16:39:44.187Z,1.71
2023-01-20T16:42:16.164Z,1.74
2023-01-20T16:44:43.269Z,1.71
2023-01-20T16:47:10.795Z,1.66
2023-01-20T16:49:38.896Z,1.80
2023-01-20T16:52:06.579Z,1.87
2023-01-20T16:54:33.542Z,1.88
2023-01-20T16:57:00.860Z,1.99
2023-01-20T16:59:27.966Z,1.87
2023-01-20T17:01:55.336Z,1.63
2023-01-20T17:04:22.536Z,1.82
2023-01-20T17:06:52.807Z,1.74
2023-01-20T17:09:19.816Z,1.84
2023-01-20T17:11:47.305Z,1.77
2023-01-20T17:14:15.617Z,1.92
2023-01-20T17:16:43.014Z,2.05
2023-01-20T17:19:10.247Z,2.07
2023-01-20T17:21:39.178Z,2.12
2023-01-20T17:24:07.410Z,2.14
2023-01-20T17:26:36.971Z,2.15
2023-01-20T17:29:05.412Z,2.16
2023-01-20T17:31:35.579Z,2.18
2023-01-20T17:34:05.836Z,2.22
2023-01-20T17:36:34.490Z,2.22
2023-01-20T17:39:04.130Z,2.24
2023-01-20T17:41:35.652Z,2.22
2023-01-20T17:44:04.015Z,2.24
2023-01-20T17:46:31.387Z,2.26
2023-01-20T17:49:04.810Z,2.27
2023-01-20T17:51:32.702Z,2.25
2023-01-20T17:54:03.394Z,2.27
2023-01-20T17:56:31.693Z,2.26
2023-01-20T17:58:58.730Z,2.29
2023-01-20T18:01:30.076Z,2.28
2023-01-20T18:03:59.302Z,2.27
2023-01-20T18:06:28.313Z,2.25
2023-01-20T18:08:59.245Z,2.23
2023-01-20T18:11:31.071Z,2.23
2023-01-20T18:14:00.536Z,2.25
2023-01-20T18:16:33.075Z,2.26
2023-01-20T18:19:00.555Z,2.27
2023-01-20T18:21:31.985Z,2.28
2023-01-20T18:24:01.304Z,2.28
2023-01-20T18:26:33.200Z,2.27
2023-01-20T18:29:05.926Z,2.26
2023-01-20T18:31:35.112Z,2.27
2023-01-20T18:34:06.743Z,2.27
2023-01-20T18:36:38.419Z,2.26
2023-01-20T18:39:13.785Z,2.25
2023-01-20T18:41:41.650Z,2.25
2023-01-20T18:44:09.857Z,2.22
2023-01-20T18:46:37.566Z,2.23
2023-01-20T18:49:06.893Z,2.24
2023-01-20T18:51:36.024Z,2.27
2023-01-20T18:54:07.634Z,2.29
2023-01-20T18:56:35.407Z,2.29
2023-01-20T18:59:05.936Z,2.26
2023-01-20T19:01:39.486Z,2.23
2023-01-20T19:04:11.873Z,2.15
2023-01-20T19:06:43.619Z,2.20
2023-01-20T19:09:12.747Z,2.21
2023-01-20T19:11:42.343Z,2.14
2023-01-20T19:14:14.315Z,2.18
2023-01-20T19:16:49.382Z,2.20
2023-01-20T19:19:18.822Z,2.18
2023-01-20T19:21:50.689Z,2.21
2023-01-20T19:24:20.700Z,2.20
2023-01-20T19:26:48.230Z,2.22
2023-01-20T19:29:17.265Z,2.25
2023-01-20T19:31:45.547Z,2.23
2023-01-20T19:34:13.073Z,2.24
2023-01-20T19:36:40.425Z,2.25
2023-01-20T19:39:07.503Z,2.25
2023-01-20T19:41:35.991Z,2.27
2023-01-20T19:44:06.502Z,2.25
2023-01-20T19:46:38.670Z,2.26
2023-01-20T19:49:06.743Z,2.26
2023-01-20T19:51:34.355Z,2.26
2023-01-20T19:54:02.523Z,2.29
2023-01-20T19:56:33.835Z,2.29
2023-01-20T19:59:01.904Z,2.28
2023-01-20T20:01:32.727Z,2.30
2023-01-20T20:04:07.234Z,2.29
2023-01-20T20:06:38.846Z,2.32
2023-01-20T20:09:19.048Z,2.32
2023-01-20T20:11:48.060Z,2.31
2023-01-20T20:14:19.038Z,2.32
2023-01-20T20:16:47.332Z,2.29
2023-01-20T20:19:19.025Z,2.28
2023-01-20T20:21:46.529Z,2.29
2023-01-20T20:24:16.068Z,2.29
2023-01-20T20:26:46.301Z,2.29
2023-01-20T20:29:16.165Z,2.29
2023-01-20T20:31:43.752Z,2.30
2023-01-20T20:34:16.522Z,2.33
2023-01-20T20:36:44.721Z,2.33
2023-01-20T20:39:17.461Z,2.31
2023-01-20T20:41:46.234Z,2.32
2023-01-20T20:44:13.728Z,2.34
2023-01-20T20:46:41.442Z,2.33
2023-01-20T20:49:15.731Z,2.34
2023-01-20T20:51:43.825Z,2.33
2023-01-20T20:54:13.892Z,2.29
2023-01-20T20:56:41.183Z,2.29
2023-01-20T20:59:09.305Z,2.29
2023-01-20T21:01:37.052Z,2.29
2023-01-20T21:04:05.823Z,2.29
2023-01-20T21:06:33.515Z,2.27
2023-01-20T21:09:00.761Z,2.27
2023-01-20T21:11:28.912Z,2.27
2023-01-20T21:13:56.283Z,2.28
2023-01-20T21:16:26.059Z,2.28
2023-01-20T21:18:56.336Z,2.27
2023-01-20T21:21:26.471Z,2.28
2023-01-20T21:23:56.743Z,2.30
2023-01-20T21:26:29.629Z,2.30
2023-01-20T21:29:00.203Z,2.31
2023-01-20T21:31:27.677Z,2.32
2023-01-20T21:34:00.177Z,2.32
2023-01-20T21:36:29.172Z,2.33
2023-01-20T21:38:56.149Z,2.32
2023-01-20T21:41:23.472Z,2.32
2023-01-20T21:44:09.271Z,2.33
2023-01-20T21:46:40.211Z,2.32
2023-01-20T21:49:30.189Z,2.40
2023-01-20T21:52:16.212Z,2.39
2023-01-20T21:54:44.958Z,2.36
2023-01-20T21:57:12.495Z,2.35
2023-01-20T21:59:39.580Z,2.36
2023-01-20T22:02:07.652Z,2.35
2023-01-20T22:04:34.788Z,2.36
2023-01-20T22:07:02.142Z,2.34
2023-01-20T22:09:29.221Z,2.36
2023-01-20T22:11:56.463Z,2.38
2023-01-20T22:14:23.573Z,2.37
2023-01-20T22:16:50.944Z,2.37
2023-01-20T22:19:18.029Z,2.36
2023-01-20T22:21:45.322Z,2.37
2023-01-20T22:24:12.475Z,2.37
2023-01-20T22:26:40.463Z,2.39
2023-01-20T22:29:07.866Z,2.39
2023-01-20T22:31:35.159Z,2.39
2023-01-20T22:34:06.442Z,2.38
2023-01-20T22:36:34.768Z,2.37
2023-01-20T22:39:05.026Z,2.37
2023-01-20T22:41:33.010Z,2.39
2023-01-20T22:44:00.060Z,2.43
2023-01-20T22:46:29.334Z,2.42
2023-01-20T22:48:58.229Z,2.45
2023-01-20T22:51:28.720Z,2.44
2023-01-20T22:53:59.130Z,2.44
2023-01-20T22:56:30.960Z,2.42
2023-01-20T22:58:59.649Z,2.41
2023-01-20T23:01:33.333Z,2.42
2023-01-20T23:04:04.961Z,2.43
2023-01-20T23:06:35.690Z,2.44
2023-01-20T23:09:08.810Z,2.44
2023-01-20T23:11:38.421Z,2.45
2023-01-20T23:14:07.273Z,2.48
2023-01-20T23:16:34.499Z,2.47
2023-01-20T23:19:01.462Z,2.45
2023-01-20T23:21:28.910Z,2.46
2023-01-20T23:23:55.825Z,2.45
2023-01-20T23:26:32.934Z,2.44
2023-01-20T23:28:59.910Z,2.43
2023-01-20T23:31:28.621Z,2.41
2023-01-20T23:33:55.793Z,2.40
2023-01-20T23:36:25.781Z,2.42
2023-01-20T23:38:56.985Z,2.43
2023-01-20T23:41:25.101Z,2.43
